createdAt,value
2019-03-11T00:00:08.111Z,75.19
2019-03-11T00:01:08.172Z,72.45
2019-03-11T00:02:08.074Z,73.91
2019-03-11T00:03:08.153Z,72.77
2019-03-11T00:04:08.932Z,73.36
2019-03-11T00:05:08.149Z,73.36
2019-03-11T00:06:08.034Z,75.74
2019-03-11T00:07:08.099Z,75.05
2019-03-11T00:08:08.024Z,76.61
2019-03-11T00:09:08.015Z,77.64
2019-03-11T00:10:07.986Z,77.58
2019-03-11T00:11:08.058Z,78.09
2019-03-11T00:12:07.970Z,78.72
2019-03-11T00:13:10.077Z,79.76
2019-03-11T00:14:07.937Z,79.80
2019-03-11T00:15:07.928Z,79.97
2019-03-11T00:16:07.988Z,81.56
2019-03-11T00:17:07.909Z,81.56
2019-03-11T00:18:08.989Z,81.56
2019-03-11T00:19:07.890Z,81.67
2019-03-11T00:20:07.870Z,80.98
2019-03-11T00:21:07.866Z,80.46
2019-03-11T00:22:09.941Z,80.87
2019-03-11T00:23:07.851Z,81.60
2019-03-11T00:24:07.933Z,81.18
2019-03-11T00:25:07.822Z,81.84
2019-03-11T00:26:07.803Z,82.89
2019-03-11T00:27:07.832Z,81.12
2019-03-11T00:28:07.802Z,80.39
2019-03-11T00:29:08.804Z,79.66
2019-03-11T00:30:07.764Z,81.01
2019-03-11T00:31:07.754Z,80.49
2019-03-11T00:32:07.756Z,79.55
2019-03-11T00:33:07.808Z,76.43
2019-03-11T00:34:07.727Z,75.98
2019-03-11T00:35:07.779Z,74.63
2019-03-11T00:36:07.707Z,75.85
2019-03-11T00:37:07.728Z,74.08
2019-03-11T00:38:07.699Z,73.56
2019-03-11T00:39:07.812Z,75.71
2019-03-11T00:40:07.659Z,76.68
2019-03-11T00:41:07.705Z,74.29
2019-03-11T00:42:07.659Z,73.35
2019-03-11T00:43:07.640Z,74.08
2019-03-11T00:44:07.700Z,75.01
2019-03-11T00:45:07.580Z,74.60
2019-03-11T00:46:08.662Z,76.51
2019-03-11T00:47:07.602Z,74.84
2019-03-11T00:48:07.572Z,75.05
2019-03-11T00:49:07.643Z,75.98
2019-03-11T00:50:07.546Z,72.94
2019-03-11T00:51:07.575Z,74.39
2019-03-11T00:52:07.545Z,74.80
2019-03-11T00:53:07.529Z,76.61
2019-03-11T00:54:07.585Z,74.32
2019-03-11T00:55:07.485Z,73.70
2019-03-11T00:56:07.515Z,74.49
2019-03-11T00:57:07.452Z,74.74
2019-03-11T00:58:07.486Z,74.84
2019-03-11T00:59:07.437Z,73.91
2019-03-11T01:00:07.487Z,73.04
2019-03-11T01:01:07.418Z,74.11
2019-03-11T01:02:07.528Z,73.04
2019-03-11T01:03:07.407Z,74.91
2019-03-11T01:04:07.459Z,75.26
2019-03-11T01:05:07.372Z,74.22
2019-03-11T01:06:07.391Z,73.70
2019-03-11T01:07:07.350Z,73.39
2019-03-11T01:08:07.351Z,74.74
2019-03-11T01:09:07.334Z,74.63
2019-03-11T01:10:07.371Z,73.39
2019-03-11T01:11:07.306Z,73.07
2019-03-11T01:12:07.404Z,73.07
2019-03-11T01:13:07.303Z,73.28
2019-03-11T01:14:08.364Z,75.26
2019-03-11T01:15:07.254Z,73.07
2019-03-11T01:16:07.284Z,73.39
2019-03-11T01:17:07.237Z,73.49
2019-03-11T01:18:07.364Z,73.70
2019-03-11T01:19:07.226Z,74.01
2019-03-11T01:20:08.282Z,75.29
2019-03-11T01:21:07.196Z,75.40
2019-03-11T01:22:07.297Z,74.46
2019-03-11T01:23:07.208Z,73.60
2019-03-11T01:24:07.167Z,75.46
2019-03-11T01:25:07.197Z,74.98
2019-03-11T01:26:07.152Z,74.57
2019-03-11T01:27:07.228Z,76.64
2019-03-11T01:28:07.112Z,75.92
2019-03-11T01:29:07.129Z,74.84
2019-03-11T01:30:07.095Z,74.32
2019-03-11T01:31:07.100Z,73.49
2019-03-11T01:32:07.070Z,74.63
2019-03-11T01:33:07.141Z,74.11
2019-03-11T01:34:07.061Z,74.46
2019-03-11T01:35:07.038Z,74.95
2019-03-11T01:36:07.042Z,74.53
2019-03-11T01:37:07.012Z,76.40
2019-03-11T01:38:07.083Z,76.61
2019-03-11T01:39:07.010Z,77.79
2019-03-11T01:40:06.978Z,75.98
2019-03-11T01:41:06.964Z,75.40
2019-03-11T01:42:07.055Z,76.09
2019-03-11T01:43:06.946Z,76.61
2019-03-11T01:44:08.977Z,75.92
2019-03-11T01:45:06.927Z,76.29
2019-03-11T01:46:06.906Z,76.61
2019-03-11T01:47:06.988Z,77.65
2019-03-11T01:48:06.888Z,77.65
2019-03-11T01:49:06.968Z,76.43
2019-03-11T01:50:06.867Z,74.43
2019-03-11T01:51:06.859Z,74.49
2019-03-11T01:52:06.850Z,76.47
2019-03-11T01:53:06.899Z,76.37
2019-03-11T01:54:06.850Z,77.65
2019-03-11T01:55:06.832Z,75.98
2019-03-11T01:56:06.801Z,74.49
2019-03-11T01:57:06.792Z,74.29
2019-03-11T01:58:06.849Z,73.87
2019-03-11T01:59:06.794Z,74.08
2019-03-11T02:00:06.782Z,74.49
2019-03-11T02:01:06.742Z,73.97
2019-03-11T02:02:06.744Z,75.01
2019-03-11T02:03:06.733Z,76.26
2019-03-11T02:04:06.804Z,75.64
2019-03-11T02:05:06.705Z,73.77
2019-03-11T02:06:06.796Z,73.25
2019-03-11T02:07:06.686Z,72.59
2019-03-11T02:08:06.676Z,72.38
2019-03-11T02:09:06.748Z,73.11
2019-03-11T02:10:06.657Z,72.83
2019-03-11T02:11:06.729Z,73.35
2019-03-11T02:12:06.627Z,72.83
2019-03-11T02:13:06.618Z,72.21
2019-03-11T02:14:06.617Z,71.86
2019-03-11T02:15:06.699Z,71.76
2019-03-11T02:16:06.589Z,72.49
2019-03-11T02:17:06.641Z,73.22
2019-03-11T02:18:06.549Z,74.05
2019-03-11T02:19:06.610Z,73.56
2019-03-11T02:20:06.531Z,75.22
2019-03-11T02:21:06.611Z,72.73
2019-03-11T02:22:06.511Z,74.60
2019-03-11T02:23:06.542Z,75.78
2019-03-11T02:24:06.492Z,73.80
2019-03-11T02:25:08.522Z,72.76
2019-03-11T02:26:06.463Z,72.94
2019-03-11T02:27:06.520Z,72.42
2019-03-11T02:28:06.446Z,72.73
2019-03-11T02:29:06.444Z,74.39
2019-03-11T02:30:06.416Z,73.04
2019-03-11T02:31:06.490Z,72.94
2019-03-11T02:32:06.396Z,72.83
2019-03-11T02:33:06.427Z,72.52
2019-03-11T02:34:06.390Z,72.83
2019-03-11T02:35:06.357Z,74.18
2019-03-11T02:36:08.379Z,74.63
2019-03-11T02:37:06.339Z,73.49
2019-03-11T02:38:06.361Z,75.15
2019-03-11T02:39:06.334Z,74.53
2019-03-11T02:40:06.300Z,74.11
2019-03-11T02:41:06.289Z,74.22
2019-03-11T02:42:06.340Z,74.32
2019-03-11T02:43:06.287Z,74.74
2019-03-11T02:44:06.321Z,74.60
2019-03-11T02:45:06.251Z,74.49
2019-03-11T02:46:13.786Z,76.68
2019-03-11T02:47:06.234Z,76.19
2019-03-11T02:48:06.243Z,76.29
2019-03-11T02:49:06.224Z,75.88
2019-03-11T02:50:07.303Z,76.61
2019-03-11T02:51:06.188Z,77.44
2019-03-11T02:52:06.213Z,77.55
2019-03-11T02:53:06.167Z,77.65
2019-03-11T02:54:06.199Z,78.27
2019-03-11T02:55:06.118Z,78.17
2019-03-11T02:56:06.119Z,76.37
2019-03-11T02:57:06.116Z,76.37
2019-03-11T02:58:06.118Z,76.68
2019-03-11T02:59:06.118Z,78.34
2019-03-11T03:00:06.164Z,77.44
2019-03-11T03:01:06.127Z,76.99
2019-03-11T03:02:06.077Z,78.23
2019-03-11T03:03:06.163Z,78.65
2019-03-11T03:04:06.070Z,77.51
2019-03-11T03:05:06.101Z,76.57
2019-03-11T03:06:06.010Z,76.37
2019-03-11T03:07:06.011Z,76.37
2019-03-11T03:08:06.100Z,76.37
2019-03-11T03:09:05.991Z,76.37
2019-03-11T03:10:12.797Z,76.78
2019-03-11T03:11:05.952Z,80.00
2019-03-11T03:12:05.945Z,78.23
2019-03-11T03:13:05.934Z,76.37
2019-03-11T03:14:06.055Z,76.26
2019-03-11T03:15:05.905Z,76.64
2019-03-11T03:16:13.832Z,76.23
2019-03-11T03:17:05.885Z,76.75
2019-03-11T03:18:05.876Z,76.33
2019-03-11T03:19:10.288Z,77.68
2019-03-11T03:20:05.860Z,77.78
2019-03-11T03:21:05.876Z,78.23
2019-03-11T03:22:05.827Z,77.92
2019-03-11T03:23:05.817Z,78.34
2019-03-11T03:24:05.927Z,79.27
2019-03-11T03:25:05.799Z,79.06
2019-03-11T03:26:09.808Z,78.89
2019-03-11T03:27:05.789Z,79.17
2019-03-11T03:28:06.317Z,80.00
2019-03-11T03:29:05.803Z,79.21
2019-03-11T03:30:06.822Z,79.72
2019-03-11T03:31:05.743Z,78.38
2019-03-11T03:32:05.856Z,78.23
2019-03-11T03:33:05.712Z,79.06
2019-03-11T03:34:05.703Z,79.69
2019-03-11T03:35:05.782Z,78.23
2019-03-11T03:36:05.684Z,78.96
2019-03-11T03:37:05.773Z,78.44
2019-03-11T03:38:05.655Z,79.52
2019-03-11T03:39:05.645Z,79.06
2019-03-11T03:40:05.657Z,79.62
2019-03-11T03:41:05.645Z,80.15
2019-03-11T03:42:05.614Z,80.15
2019-03-11T03:43:06.049Z,80.46
2019-03-11T03:44:05.646Z,80.77
2019-03-11T03:45:05.597Z,80.46
2019-03-11T03:46:18.514Z,80.25
2019-03-11T03:47:06.557Z,80.35
2019-03-11T03:48:06.638Z,79.62
2019-03-11T03:49:05.592Z,80.00
2019-03-11T03:50:05.603Z,79.41
2019-03-11T03:51:05.501Z,80.25
2019-03-11T03:52:05.592Z,80.46
2019-03-11T03:53:05.479Z,79.62
2019-03-11T03:54:07.578Z,79.38
2019-03-11T03:55:05.470Z,78.65
2019-03-11T03:56:05.461Z,79.69
2019-03-11T03:57:05.487Z,79.00
2019-03-11T03:58:07.443Z,78.75
2019-03-11T03:59:05.413Z,78.86
2019-03-11T04:00:05.413Z,78.86
2019-03-11T04:01:05.502Z,79.58
2019-03-11T04:02:05.401Z,78.55
2019-03-11T04:03:06.464Z,80.32
2019-03-11T04:04:05.363Z,80.52
2019-03-11T04:05:05.359Z,80.11
2019-03-11T04:06:05.329Z,80.63
2019-03-11T04:07:05.408Z,80.11
2019-03-11T04:08:05.307Z,82.18
2019-03-11T04:09:06.385Z,82.95
2019-03-11T04:10:05.297Z,83.95
2019-03-11T04:11:05.286Z,82.64
2019-03-11T04:12:06.277Z,82.64
2019-03-11T04:13:05.260Z,84.51
2019-03-11T04:14:05.288Z,85.13
2019-03-11T04:15:05.249Z,85.28
2019-03-11T04:16:05.229Z,85.38
2019-03-11T04:17:07.239Z,86.21
2019-03-11T04:18:05.226Z,86.11
2019-03-11T04:19:07.271Z,86.63
2019-03-11T04:20:05.190Z,86.11
2019-03-11T04:21:05.177Z,86.63
2019-03-11T04:22:05.162Z,87.25
2019-03-11T04:23:05.193Z,87.66
2019-03-11T04:24:05.126Z,88.02
2019-03-11T04:25:06.202Z,88.43
2019-03-11T04:26:05.202Z,89.06
2019-03-11T04:27:05.103Z,89.94
2019-03-11T04:28:05.134Z,90.66
2019-03-11T04:29:05.064Z,91.33
2019-03-11T04:30:05.104Z,90.91
2019-03-11T04:31:05.054Z,91.02
2019-03-11T04:32:05.041Z,91.75
2019-03-11T04:33:05.034Z,91.64
2019-03-11T04:34:05.043Z,91.96
2019-03-11T04:35:05.017Z,92.16
2019-03-11T04:36:05.077Z,92.72
2019-03-11T04:37:05.047Z,93.04
2019-03-11T04:38:04.967Z,93.04
2019-03-11T04:39:04.979Z,93.24
2019-03-11T04:40:04.958Z,93.71
2019-03-11T04:41:05.018Z,94.54
2019-03-11T04:42:04.919Z,94.39
2019-03-11T04:43:04.974Z,93.81
2019-03-11T04:44:06.770Z,94.64
2019-03-11T04:45:04.930Z,94.64
2019-03-11T04:46:04.870Z,95.06
2019-03-11T04:47:04.921Z,95.06
2019-03-11T04:48:04.856Z,94.64
2019-03-11T04:49:05.882Z,95.27
2019-03-11T04:50:04.852Z,95.27
2019-03-11T04:51:05.922Z,95.37
2019-03-11T04:52:04.804Z,95.17
2019-03-11T04:53:04.814Z,95.21
2019-03-11T04:54:05.823Z,95.37
2019-03-11T04:55:04.774Z,96.11
2019-03-11T04:56:06.785Z,96.04
2019-03-11T04:57:04.755Z,96.00
2019-03-11T04:58:04.745Z,95.79
2019-03-11T04:59:04.735Z,96.11
2019-03-11T05:00:05.776Z,95.17
2019-03-11T05:01:04.719Z,95.17
2019-03-11T05:02:04.747Z,95.79
2019-03-11T05:03:04.687Z,96.00
2019-03-11T05:04:04.677Z,95.89
2019-03-11T05:05:04.699Z,96.15
2019-03-11T05:06:04.658Z,96.04
2019-03-11T05:07:04.688Z,96.04
2019-03-11T05:08:04.629Z,96.04
2019-03-11T05:09:04.622Z,96.36
2019-03-11T05:10:04.621Z,96.25
2019-03-11T05:11:04.666Z,96.46
2019-03-11T05:12:04.584Z,96.15
2019-03-11T05:13:04.592Z,96.56
2019-03-11T05:14:04.552Z,96.25
2019-03-11T05:15:04.672Z,96.46
2019-03-11T05:16:04.533Z,96.92
2019-03-11T05:17:04.573Z,97.75
2019-03-11T05:18:04.513Z,97.24
2019-03-11T05:19:04.594Z,97.13
2019-03-11T05:20:04.609Z,97.44
2019-03-11T05:21:04.478Z,97.19
2019-03-11T05:22:11.355Z,97.81
2019-03-11T05:23:04.456Z,97.34
2019-03-11T05:24:04.536Z,97.55
2019-03-11T05:25:04.546Z,97.44
2019-03-11T05:26:04.418Z,97.65
2019-03-11T05:27:04.437Z,97.97
2019-03-11T05:28:04.400Z,98.07
2019-03-11T05:29:04.479Z,97.81
2019-03-11T05:30:04.393Z,97.86
2019-03-11T05:31:04.362Z,97.86
2019-03-11T05:32:04.380Z,97.55
2019-03-11T05:33:04.339Z,98.07
2019-03-11T05:34:04.413Z,97.03
2019-03-11T05:35:04.327Z,98.28
2019-03-11T05:36:04.324Z,97.86
2019-03-11T05:37:04.321Z,97.97
2019-03-11T05:38:04.288Z,98.28
2019-03-11T05:39:04.362Z,97.86
2019-03-11T05:40:04.274Z,98.07
2019-03-11T05:41:04.322Z,97.81
2019-03-11T05:42:04.246Z,97.61
2019-03-11T05:43:04.335Z,97.71
2019-03-11T05:44:04.224Z,97.92
2019-03-11T05:45:05.295Z,98.02
2019-03-11T05:46:04.214Z,97.81
2019-03-11T05:47:04.176Z,98.13
2019-03-11T05:48:04.176Z,97.71
2019-03-11T05:49:04.235Z,98.23
2019-03-11T05:50:04.146Z,98.13
2019-03-11T05:51:05.237Z,98.23
2019-03-11T05:52:04.271Z,97.40
2019-03-11T05:53:04.110Z,97.92
2019-03-11T05:54:04.185Z,97.77
2019-03-11T05:55:04.088Z,97.56
2019-03-11T05:56:04.159Z,97.25
2019-03-11T05:57:04.059Z,97.35
2019-03-11T05:58:05.070Z,97.30
2019-03-11T05:59:04.040Z,97.25
2019-03-11T06:00:04.090Z,97.40
2019-03-11T06:01:04.853Z,97.14
2019-03-11T06:02:04.122Z,97.30
2019-03-11T06:03:04.092Z,97.50
2019-03-11T06:04:03.982Z,97.67
2019-03-11T06:05:05.042Z,96.36
2019-03-11T06:06:03.972Z,96.11
2019-03-11T06:07:04.063Z,95.48
2019-03-11T06:08:03.944Z,95.06
2019-03-11T06:09:05.014Z,95.06
2019-03-11T06:10:03.918Z,95.06
2019-03-11T06:11:04.005Z,95.06
2019-03-11T06:12:03.896Z,94.70
2019-03-11T06:13:04.985Z,94.64
2019-03-11T06:14:03.878Z,95.06
2019-03-11T06:15:03.897Z,94.81
2019-03-11T06:16:03.867Z,93.91
2019-03-11T06:17:03.948Z,93.46
2019-03-11T06:18:03.828Z,93.87
2019-03-11T06:19:03.873Z,94.18
2019-03-11T06:20:05.889Z,94.18
2019-03-11T06:21:03.818Z,93.98
2019-03-11T06:22:03.878Z,93.98
2019-03-11T06:23:03.773Z,93.35
2019-03-11T06:24:03.770Z,92.83
2019-03-11T06:25:03.761Z,92.52
2019-03-11T06:26:03.802Z,92.93
2019-03-11T06:27:03.731Z,93.14
2019-03-11T06:28:04.811Z,92.47
2019-03-11T06:29:03.712Z,90.75
2019-03-11T06:30:03.718Z,89.25
2019-03-11T06:31:03.733Z,90.70
2019-03-11T06:32:03.663Z,89.98
2019-03-11T06:33:03.723Z,89.87
2019-03-11T06:34:03.643Z,87.83
2019-03-11T06:35:03.647Z,87.48
2019-03-11T06:36:03.655Z,87.54
2019-03-11T06:37:03.696Z,87.99
2019-03-11T06:38:03.595Z,86.96
2019-03-11T06:39:06.128Z,86.85
2019-03-11T06:40:05.647Z,88.06
2019-03-11T06:41:03.589Z,86.81
2019-03-11T06:42:03.638Z,86.29
2019-03-11T06:43:03.538Z,86.40
2019-03-11T06:44:04.599Z,84.83
2019-03-11T06:45:03.518Z,85.14
2019-03-11T06:46:03.550Z,86.19
2019-03-11T06:47:03.505Z,86.50
2019-03-11T06:48:03.540Z,86.60
2019-03-11T06:49:03.493Z,87.23
2019-03-11T06:50:04.500Z,87.96
2019-03-11T06:51:03.472Z,87.37
2019-03-11T06:52:11.296Z,88.31
2019-03-11T06:53:03.433Z,87.79
2019-03-11T06:54:10.302Z,88.48
2019-03-11T06:55:03.402Z,89.00
2019-03-11T06:56:03.412Z,88.68
2019-03-11T06:57:05.413Z,88.17
2019-03-11T06:58:03.373Z,88.10
2019-03-11T06:59:05.444Z,88.58
2019-03-11T07:00:03.355Z,88.27
2019-03-11T07:01:03.360Z,88.79
2019-03-11T07:02:04.417Z,89.62
2019-03-11T07:03:03.326Z,90.04
2019-03-11T07:04:04.448Z,90.56
2019-03-11T07:05:03.306Z,90.56
2019-03-11T07:06:03.287Z,91.04
2019-03-11T07:07:03.279Z,90.83
2019-03-11T07:08:04.327Z,91.25
2019-03-11T07:09:03.258Z,91.25
2019-03-11T07:10:03.338Z,90.62
2019-03-11T07:11:03.239Z,90.72
2019-03-11T07:12:03.283Z,91.04
2019-03-11T07:13:03.200Z,91.46
2019-03-11T07:14:03.214Z,91.46
2019-03-11T07:15:03.205Z,91.50
2019-03-11T07:16:03.291Z,91.56
2019-03-11T07:17:03.162Z,90.83
2019-03-11T07:18:03.329Z,90.66
2019-03-11T07:19:03.135Z,90.62
2019-03-11T07:20:03.355Z,90.62
2019-03-11T07:21:03.125Z,91.46
2019-03-11T07:22:03.148Z,91.04
2019-03-11T07:23:03.101Z,91.35
2019-03-11T07:24:03.195Z,91.97
2019-03-11T07:25:03.065Z,92.70
2019-03-11T07:26:03.165Z,91.77
2019-03-11T07:27:03.098Z,91.04
2019-03-11T07:28:03.036Z,91.56
2019-03-11T07:29:03.027Z,91.77
2019-03-11T07:30:03.001Z,92.18
2019-03-11T07:31:03.098Z,92.39
2019-03-11T07:32:03.028Z,92.66
2019-03-11T07:33:02.984Z,92.55
2019-03-11T07:34:03.070Z,92.70
2019-03-11T07:35:08.411Z,92.76
2019-03-11T07:36:07.349Z,92.24
2019-03-11T07:37:02.951Z,92.03
2019-03-11T07:38:02.941Z,91.78
2019-03-11T07:39:02.902Z,92.47
2019-03-11T07:40:02.972Z,91.53
2019-03-11T07:41:02.931Z,91.64
2019-03-11T07:42:02.929Z,92.16
2019-03-11T07:43:04.948Z,92.43
2019-03-11T07:44:02.875Z,91.49
2019-03-11T07:45:02.929Z,91.39
2019-03-11T07:46:02.847Z,90.81
2019-03-11T07:47:02.895Z,90.60
2019-03-11T07:48:02.924Z,91.33
2019-03-11T07:49:02.804Z,91.53
2019-03-11T07:50:02.845Z,91.12
2019-03-11T07:51:02.786Z,91.33
2019-03-11T07:52:02.866Z,89.87
2019-03-11T07:53:02.747Z,87.84
2019-03-11T07:54:02.836Z,86.38
2019-03-11T07:55:02.739Z,85.24
2019-03-11T07:56:02.773Z,86.49
2019-03-11T07:57:02.728Z,86.13
2019-03-11T07:58:02.809Z,87.17
2019-03-11T07:59:02.769Z,88.07
2019-03-11T08:00:02.671Z,88.38
2019-03-11T08:01:02.719Z,86.51
2019-03-11T08:02:02.671Z,84.58
2019-03-11T08:03:02.740Z,86.09
2019-03-11T08:04:02.714Z,86.61
2019-03-11T08:05:02.611Z,86.93
2019-03-11T08:06:04.692Z,86.61
2019-03-11T08:07:02.628Z,85.26
2019-03-11T08:08:02.800Z,86.19
2019-03-11T08:09:02.572Z,86.51
2019-03-11T08:10:02.558Z,86.13
2019-03-11T08:11:10.363Z,88.31
2019-03-11T08:12:02.547Z,88.38
2019-03-11T08:13:02.625Z,88.17
2019-03-11T08:14:02.509Z,82.56
2019-03-11T08:15:02.630Z,83.18
2019-03-11T08:16:02.518Z,81.42
2019-03-11T08:17:02.500Z,81.84
2019-03-11T08:18:02.558Z,81.84
2019-03-11T08:19:02.444Z,80.49
2019-03-11T08:20:02.488Z,80.14
2019-03-11T08:21:02.428Z,77.95
2019-03-11T08:22:02.482Z,76.61
2019-03-11T08:23:02.408Z,78.37
2019-03-11T08:24:02.479Z,79.41
2019-03-11T08:25:02.390Z,79.38
2019-03-11T08:26:02.371Z,79.90
2019-03-11T08:27:02.411Z,77.95
2019-03-11T08:28:02.451Z,81.30
2019-03-11T08:29:02.365Z,78.34
2019-03-11T08:30:02.384Z,77.72
2019-03-11T08:31:02.335Z,76.57
2019-03-11T08:32:02.364Z,76.89
2019-03-11T08:33:02.304Z,79.69
2019-03-11T08:34:03.364Z,74.46
2019-03-11T08:35:02.280Z,72.53
2019-03-11T08:36:02.274Z,74.46
2019-03-11T08:37:02.275Z,72.67
2019-03-11T08:38:05.316Z,75.43
2019-03-11T08:39:02.237Z,72.56
2019-03-11T08:40:02.261Z,70.91
2019-03-11T08:41:02.216Z,71.81
2019-03-11T08:42:02.237Z,71.73
2019-03-11T08:43:02.203Z,73.77
2019-03-11T08:44:02.218Z,72.50
2019-03-11T08:45:02.158Z,71.85
2019-03-11T08:46:02.286Z,72.53
2019-03-11T08:47:02.178Z,73.98
2019-03-11T08:48:02.106Z,73.50
2019-03-11T08:49:02.110Z,70.12
2019-03-11T08:50:02.132Z,68.82
2019-03-11T08:51:02.090Z,68.38
2019-03-11T08:52:02.112Z,66.39
2019-03-11T08:53:02.078Z,64.77
2019-03-11T08:54:02.052Z,64.84
2019-03-11T08:55:03.105Z,66.28
2019-03-11T08:56:02.033Z,65.74
2019-03-11T08:57:02.043Z,62.41
2019-03-11T08:58:02.024Z,62.07
2019-03-11T08:59:01.985Z,63.09
2019-03-11T09:00:01.998Z,66.30
2019-03-11T09:01:02.085Z,67.58
2019-03-11T09:02:01.968Z,66.36
2019-03-11T09:03:02.016Z,68.30
2019-03-11T09:04:01.936Z,68.71
2019-03-11T09:05:01.927Z,68.16
2019-03-11T09:06:02.029Z,68.33
2019-03-11T09:07:01.917Z,68.88
2019-03-11T09:08:02.980Z,69.09
2019-03-11T09:09:01.891Z,70.12
2019-03-11T09:10:01.870Z,72.08
2019-03-11T09:11:01.973Z,69.43
2019-03-11T09:12:01.861Z,70.32
2019-03-11T09:13:01.900Z,71.80
2019-03-11T09:14:01.811Z,73.08
2019-03-11T09:15:01.841Z,74.91
2019-03-11T09:16:01.803Z,75.74
2019-03-11T09:17:02.842Z,75.02
2019-03-11T09:18:01.793Z,73.77
2019-03-11T09:19:01.834Z,74.60
2019-03-11T09:20:01.776Z,75.19
2019-03-11T09:21:04.925Z,73.84
2019-03-11T09:22:01.754Z,71.98
2019-03-11T09:23:01.795Z,73.43
2019-03-11T09:24:01.716Z,73.22
2019-03-11T09:25:01.734Z,75.92
2019-03-11T09:26:01.696Z,72.08
2019-03-11T09:27:01.807Z,72.98
2019-03-11T09:28:01.680Z,72.98
2019-03-11T09:29:02.728Z,74.12
2019-03-11T09:30:01.653Z,71.08
2019-03-11T09:31:01.738Z,72.84
2019-03-11T09:32:01.649Z,72.53
2019-03-11T09:33:01.678Z,73.98
2019-03-11T09:34:01.600Z,75.71
2019-03-11T09:35:01.701Z,76.12
2019-03-11T09:36:01.595Z,74.26
2019-03-11T09:37:01.571Z,75.67
2019-03-11T09:38:03.823Z,75.98
2019-03-11T09:39:01.543Z,73.29
2019-03-11T09:40:01.642Z,72.39
2019-03-11T09:41:01.534Z,72.63
2019-03-11T09:42:01.635Z,72.32
2019-03-11T09:43:01.496Z,74.43
2019-03-11T09:44:02.536Z,74.19
2019-03-11T09:45:01.520Z,75.78
2019-03-11T09:46:02.576Z,77.02
2019-03-11T09:47:01.455Z,79.51
2019-03-11T09:48:01.456Z,78.64
2019-03-11T09:49:01.428Z,76.40
2019-03-11T09:50:02.440Z,76.71
2019-03-11T09:51:01.436Z,78.44
2019-03-11T09:52:03.507Z,79.37
2019-03-11T09:53:01.420Z,75.74
2019-03-11T09:54:02.419Z,72.84
2019-03-11T09:55:01.362Z,74.32
2019-03-11T09:56:02.626Z,76.40
2019-03-11T09:57:01.339Z,75.46
2019-03-11T09:58:02.431Z,75.46
2019-03-11T09:59:01.332Z,74.53
2019-03-11T10:00:01.301Z,72.56
2019-03-11T10:01:03.321Z,72.15
2019-03-11T10:02:01.282Z,72.25
2019-03-11T10:03:02.375Z,71.59
2019-03-11T10:04:01.275Z,73.32
2019-03-11T10:05:01.333Z,74.02
2019-03-11T10:06:01.238Z,73.91
2019-03-11T10:07:02.304Z,69.98
2019-03-11T10:08:01.385Z,68.87
2019-03-11T10:09:01.326Z,71.15
2019-03-11T10:10:01.197Z,70.15
2019-03-11T10:11:02.281Z,71.08
2019-03-11T10:12:01.183Z,71.91
2019-03-11T10:13:01.237Z,71.18
2019-03-11T10:14:01.158Z,68.98
2019-03-11T10:15:01.223Z,71.77
2019-03-11T10:16:01.128Z,73.29
2019-03-11T10:17:01.158Z,73.25
2019-03-11T10:18:01.120Z,66.59
2019-03-11T10:19:01.201Z,67.76
2019-03-11T10:20:01.080Z,68.59
2019-03-11T10:21:01.049Z,68.73
2019-03-11T10:22:01.052Z,69.14
2019-03-11T10:23:01.111Z,69.35
2019-03-11T10:24:01.032Z,69.87
2019-03-11T10:25:01.103Z,69.14
2019-03-11T10:26:01.015Z,70.04
2019-03-11T10:27:00.993Z,71.63
2019-03-11T10:28:01.053Z,71.08
2019-03-11T10:29:00.975Z,68.93
2019-03-11T10:30:01.035Z,69.24
2019-03-11T10:31:00.945Z,71.53
2019-03-11T10:32:00.937Z,70.07
2019-03-11T10:33:00.937Z,70.59
2019-03-11T10:34:02.957Z,72.32
2019-03-11T10:35:00.907Z,73.22
2019-03-11T10:36:00.948Z,71.94
2019-03-11T10:37:00.887Z,69.15
2019-03-11T10:38:00.929Z,70.42
2019-03-11T10:39:00.859Z,72.29
2019-03-11T10:40:00.920Z,70.36
2019-03-11T10:41:00.840Z,71.91
2019-03-11T10:42:01.880Z,72.53
2019-03-11T10:43:00.830Z,73.88
2019-03-11T10:44:00.902Z,71.80
2019-03-11T10:45:00.892Z,73.43
2019-03-11T10:46:00.833Z,74.98
2019-03-11T10:47:00.773Z,74.46
2019-03-11T10:48:00.772Z,74.77
2019-03-11T10:49:00.743Z,75.50
2019-03-11T10:50:00.815Z,74.46
2019-03-11T10:51:00.834Z,73.63
2019-03-11T10:52:00.744Z,72.08
2019-03-11T10:53:00.696Z,72.50
2019-03-11T10:54:00.775Z,73.67
2019-03-11T10:55:00.676Z,72.63
2019-03-11T10:56:00.727Z,72.81
2019-03-11T10:57:00.667Z,71.56
2019-03-11T10:58:00.697Z,71.46
2019-03-11T10:59:00.648Z,71.98
2019-03-11T11:00:00.679Z,71.49
2019-03-11T11:01:00.618Z,74.50
2019-03-11T11:02:01.662Z,71.49
2019-03-11T11:03:00.611Z,70.56
2019-03-11T11:04:00.590Z,71.18
2019-03-11T11:05:00.581Z,72.74
2019-03-11T11:06:00.591Z,71.15
2019-03-11T11:07:00.552Z,70.21
2019-03-11T11:08:00.592Z,71.46
2019-03-11T11:09:00.513Z,71.25
2019-03-11T11:10:00.516Z,72.05
2019-03-11T11:11:00.507Z,71.33
2019-03-11T11:12:00.605Z,70.32
2019-03-11T11:13:00.476Z,70.32
2019-03-11T11:14:01.565Z,69.63
2019-03-11T11:15:00.506Z,72.32
2019-03-11T11:16:02.516Z,71.08
2019-03-11T11:17:00.436Z,71.28
2019-03-11T11:18:00.447Z,70.70
2019-03-11T11:19:00.407Z,71.59
2019-03-11T11:20:03.491Z,72.01
2019-03-11T11:21:00.408Z,69.32
2019-03-11T11:22:00.478Z,69.11
2019-03-11T11:23:00.380Z,68.87
2019-03-11T11:24:00.415Z,69.90
2019-03-11T11:25:00.396Z,71.43
2019-03-11T11:26:00.330Z,69.12
2019-03-11T11:27:00.320Z,68.19
2019-03-11T11:28:00.437Z,67.46
2019-03-11T11:29:00.300Z,69.09
2019-03-11T11:30:00.348Z,68.26
2019-03-11T11:31:00.277Z,67.30
2019-03-11T11:32:00.263Z,66.26
2019-03-11T11:33:00.254Z,67.02
2019-03-11T11:34:03.408Z,70.09
2019-03-11T11:35:00.377Z,71.33
2019-03-11T11:36:01.255Z,67.91
2019-03-11T11:37:00.216Z,66.67
2019-03-11T11:38:00.265Z,66.16
2019-03-11T11:39:00.197Z,66.71
2019-03-11T11:40:01.226Z,69.88
2019-03-11T11:41:00.167Z,66.78
2019-03-11T11:42:00.238Z,67.82
2019-03-11T11:43:00.212Z,67.71
2019-03-11T11:44:00.137Z,67.71
2019-03-11T11:45:00.318Z,67.36
2019-03-11T11:46:00.098Z,68.40
2019-03-11T11:47:00.179Z,68.74
2019-03-11T11:48:01.180Z,68.70
2019-03-11T11:49:00.099Z,70.15
2019-03-11T11:50:00.123Z,69.95
2019-03-11T11:51:00.061Z,68.60
2019-03-11T11:52:00.124Z,70.67
2019-03-11T11:53:00.044Z,70.77
2019-03-11T11:54:00.042Z,73.84
2019-03-11T11:55:00.023Z,69.22
2019-03-11T11:56:00.003Z,69.87
2019-03-11T11:57:00.074Z,71.59
2019-03-11T11:57:59.964Z,73.11
2019-03-11T11:58:59.985Z,73.57
2019-03-11T11:59:59.955Z,74.98
2019-03-11T12:01:00.955Z,75.71
2019-03-11T12:02:04.008Z,74.26
2019-03-11T12:02:59.972Z,73.84
2019-03-11T12:03:59.927Z,74.08
2019-03-11T12:04:59.887Z,73.57
2019-03-11T12:06:01.918Z,74.71
2019-03-11T12:06:59.868Z,75.84
2019-03-11T12:07:59.910Z,75.84
2019-03-11T12:08:59.859Z,76.15
2019-03-11T12:09:59.840Z,77.47
2019-03-11T12:10:59.820Z,74.43
2019-03-11T12:11:59.881Z,75.09
2019-03-11T12:12:59.804Z,74.46
2019-03-11T12:13:59.851Z,74.46
2019-03-11T12:14:59.783Z,75.67
2019-03-11T12:15:59.763Z,74.05
2019-03-11T12:16:59.803Z,74.26
2019-03-11T12:17:59.746Z,75.05
2019-03-11T12:19:00.155Z,76.09
2019-03-11T12:19:59.730Z,73.19
2019-03-11T12:20:59.715Z,73.50
2019-03-11T12:21:59.757Z,72.29
2019-03-11T12:22:59.696Z,73.32
2019-03-11T12:23:59.696Z,74.46
2019-03-11T12:24:59.677Z,74.84
2019-03-11T12:25:59.731Z,74.53
2019-03-11T12:26:59.660Z,75.67
2019-03-11T12:27:59.669Z,75.63
2019-03-11T12:28:59.637Z,74.40
2019-03-11T12:29:59.638Z,74.71
2019-03-11T12:30:59.600Z,72.33
2019-03-11T12:31:59.589Z,71.60
2019-03-11T12:32:59.600Z,72.22
2019-03-11T12:33:59.553Z,71.50
2019-03-11T12:34:59.580Z,72.12
2019-03-11T12:35:59.541Z,70.36
2019-03-11T12:36:59.543Z,70.98
2019-03-11T12:37:59.531Z,71.01
2019-03-11T12:38:59.624Z,70.57
2019-03-11T12:39:59.523Z,69.95
2019-03-11T12:40:59.563Z,72.12
2019-03-11T12:41:59.486Z,69.67
2019-03-11T12:42:59.474Z,70.05
2019-03-11T12:43:59.465Z,68.91
2019-03-11T12:44:59.576Z,68.91
2019-03-11T12:45:59.436Z,69.29
2019-03-11T12:47:00.487Z,68.40
2019-03-11T12:47:59.429Z,69.92
2019-03-11T12:48:59.407Z,70.84
2019-03-11T12:50:01.458Z,68.26
2019-03-11T12:50:59.383Z,68.77
2019-03-11T12:51:59.403Z,68.54